sensor_id;sensor_type;location;lat;lon;timestamp;P1;durP1;ratioP1;P2;durP2;ratioP2
40649;SDS011;26342;42.826;23.992;2023-11-21T00:00:04;8.57;;;4.28;;
40649;SDS011;26342;42.826;23.992;2023-11-21T00:02:35;5.32;;;3.35;;
40649;SDS011;26342;42.826;23.992;2023-11-21T00:05:02;6.82;;;3.53;;
40649;SDS011;26342;42.826;23.992;2023-11-21T00:07:28;12.65;;;5.60;;
40649;SDS011;26342;42.826;23.992;2023-11-21T00:09:53;12.38;;;5.97;;
40649;SDS011;26342;42.826;23.992;2023-11-21T00:12:21;6.03;;;3.92;;
40649;SDS011;26342;42.826;23.992;2023-11-21T00:14:46;7.03;;;2.78;;
40649;SDS011;26342;42.826;23.992;2023-11-21T00:17:12;3.47;;;2.85;;
40649;SDS011;26342;42.826;23.992;2023-11-21T00:19:37;5.63;;;2.38;;
40649;SDS011;26342;42.826;23.992;2023-11-21T00:22:02;9.15;;;3.72;;
40649;SDS011;26342;42.826;23.992;2023-11-21T00:24:28;8.52;;;4.97;;
40649;SDS011;26342;42.826;23.992;2023-11-21T00:26:53;13.45;;;6.57;;
40649;SDS011;26342;42.826;23.992;2023-11-21T00:29:19;9.63;;;5.72;;
40649;SDS011;26342;42.826;23.992;2023-11-21T00:31:44;16.27;;;7.82;;
40649;SDS011;26342;42.826;23.992;2023-11-21T00:34:11;15.90;;;6.35;;
40649;SDS011;26342;42.826;23.992;2023-11-21T00:36:37;11.70;;;5.13;;
40649;SDS011;26342;42.826;23.992;2023-11-21T00:39:02;15.27;;;6.65;;
40649;SDS011;26342;42.826;23.992;2023-11-21T00:41:28;8.18;;;4.03;;
40649;SDS011;26342;42.826;23.992;2023-11-21T00:43:54;7.07;;;4.30;;
40649;SDS011;26342;42.826;23.992;2023-11-21T00:46:20;8.63;;;3.25;;
40649;SDS011;26342;42.826;23.992;2023-11-21T00:48:46;7.22;;;3.40;;
40649;SDS011;26342;42.826;23.992;2023-11-21T00:51:11;4.63;;;2.80;;
40649;SDS011;26342;42.826;23.992;2023-11-21T00:53:36;11.73;;;4.25;;
40649;SDS011;26342;42.826;23.992;2023-11-21T00:56:02;5.85;;;3.45;;
40649;SDS011;26342;42.826;23.992;2023-11-21T00:58:27;9.30;;;3.20;;
40649;SDS011;26342;42.826;23.992;2023-11-21T01:00:53;9.25;;;4.20;;
40649;SDS011;26342;42.826;23.992;2023-11-21T01:03:18;6.55;;;2.97;;
40649;SDS011;26342;42.826;23.992;2023-11-21T01:05:44;6.43;;;3.28;;
40649;SDS011;26342;42.826;23.992;2023-11-21T01:08:10;6.43;;;4.18;;
40649;SDS011;26342;42.826;23.992;2023-11-21T01:10:36;11.00;;;3.17;;
40649;SDS011;26342;42.826;23.992;2023-11-21T01:13:02;10.73;;;3.80;;
40649;SDS011;26342;42.826;23.992;2023-11-21T01:15:30;9.57;;;3.85;;
40649;SDS011;26342;42.826;23.992;2023-11-21T01:17:56;12.48;;;4.55;;
40649;SDS011;26342;42.826;23.992;2023-11-21T01:20:21;7.10;;;3.28;;
40649;SDS011;26342;42.826;23.992;2023-11-21T01:22:46;8.65;;;4.60;;
40649;SDS011;26342;42.826;23.992;2023-11-21T01:25:14;11.27;;;3.47;;
40649;SDS011;26342;42.826;23.992;2023-11-21T01:27:39;9.23;;;5.05;;
40649;SDS011;26342;42.826;23.992;2023-11-21T01:30:05;10.13;;;5.68;;
40649;SDS011;26342;42.826;23.992;2023-11-21T01:32:32;13.02;;;6.55;;
40649;SDS011;26342;42.826;23.992;2023-11-21T01:34:59;11.93;;;5.28;;
40649;SDS011;26342;42.826;23.992;2023-11-21T01:37:25;9.50;;;4.85;;
40649;SDS011;26342;42.826;23.992;2023-11-21T01:39:52;5.55;;;3.65;;
40649;SDS011;26342;42.826;23.992;2023-11-21T01:42:21;13.23;;;4.40;;
40649;SDS011;26342;42.826;23.992;2023-11-21T01:44:46;7.28;;;3.67;;
40649;SDS011;26342;42.826;23.992;2023-11-21T01:47:12;6.18;;;2.83;;
40649;SDS011;26342;42.826;23.992;2023-11-21T01:49:38;8.63;;;2.92;;
40649;SDS011;26342;42.826;23.992;2023-11-21T01:52:04;7.60;;;4.13;;
40649;SDS011;26342;42.826;23.992;2023-11-21T01:54:31;5.50;;;3.25;;
40649;SDS011;26342;42.826;23.992;2023-11-21T01:56:58;11.15;;;3.83;;
40649;SDS011;26342;42.826;23.992;2023-11-21T01:59:28;15.68;;;6.38;;
40649;SDS011;26342;42.826;23.992;2023-11-21T02:01:59;9.68;;;4.43;;
40649;SDS011;26342;42.826;23.992;2023-11-21T02:04:24;9.20;;;5.15;;
40649;SDS011;26342;42.826;23.992;2023-11-21T02:06:50;7.85;;;3.17;;
40649;SDS011;26342;42.826;23.992;2023-11-21T02:09:16;8.18;;;3.15;;
40649;SDS011;26342;42.826;23.992;2023-11-21T02:11:42;6.95;;;2.90;;
40649;SDS011;26342;42.826;23.992;2023-11-21T02:14:09;6.57;;;2.97;;
40649;SDS011;26342;42.826;23.992;2023-11-21T02:16:35;5.15;;;2.65;;
40649;SDS011;26342;42.826;23.992;2023-11-21T02:19:01;8.13;;;2.67;;
40649;SDS011;26342;42.826;23.992;2023-11-21T02:21:28;4.15;;;1.75;;
40649;SDS011;26342;42.826;23.992;2023-11-21T02:23:55;2.53;;;0.93;;
40649;SDS011;26342;42.826;23.992;2023-11-21T02:26:20;2.78;;;1.25;;
40649;SDS011;26342;42.826;23.992;2023-11-21T02:28:46;0.85;;;0.73;;
40649;SDS011;26342;42.826;23.992;2023-11-21T02:31:11;0.55;;;0.40;;
40649;SDS011;26342;42.826;23.992;2023-11-21T02:33:37;0.75;;;0.65;;
40649;SDS011;26342;42.826;23.992;2023-11-21T02:36:03;0.60;;;0.43;;
40649;SDS011;26342;42.826;23.992;2023-11-21T02:38:28;3.30;;;1.42;;
40649;SDS011;26342;42.826;23.992;2023-11-21T02:40:55;6.68;;;3.30;;
40649;SDS011;26342;42.826;23.992;2023-11-21T02:43:23;5.78;;;3.72;;
40649;SDS011;26342;42.826;23.992;2023-11-21T02:45:48;11.88;;;4.50;;
40649;SDS011;26342;42.826;23.992;2023-11-21T02:48:14;7.70;;;3.47;;
40649;SDS011;26342;42.826;23.992;2023-11-21T02:50:39;10.50;;;4.53;;
40649;SDS011;26342;42.826;23.992;2023-11-21T02:53:04;6.80;;;4.57;;
40649;SDS011;26342;42.826;23.992;2023-11-21T02:55:32;5.38;;;3.63;;
40649;SDS011;26342;42.826;23.992;2023-11-21T02:58:01;8.10;;;2.45;;
40649;SDS011;26342;42.826;23.992;2023-11-21T03:00:26;7.72;;;3.63;;
40649;SDS011;26342;42.826;23.992;2023-11-21T03:02:53;6.72;;;3.22;;
40649;SDS011;26342;42.826;23.992;2023-11-21T03:05:20;5.07;;;3.25;;
40649;SDS011;26342;42.826;23.992;2023-11-21T03:07:46;6.57;;;3.92;;
40649;SDS011;26342;42.826;23.992;2023-11-21T03:10:12;5.45;;;3.40;;
40649;SDS011;26342;42.826;23.992;2023-11-21T03:12:37;6.50;;;3.72;;
40649;SDS011;26342;42.826;23.992;2023-11-21T03:15:04;8.52;;;4.15;;
40649;SDS011;26342;42.826;23.992;2023-11-21T03:17:31;17.38;;;6.18;;
40649;SDS011;26342;42.826;23.992;2023-11-21T03:19:56;11.43;;;5.55;;
40649;SDS011;26342;42.826;23.992;2023-11-21T03:22:22;15.82;;;6.30;;
40649;SDS011;26342;42.826;23.992;2023-11-21T03:24:48;6.53;;;3.65;;
40649;SDS011;26342;42.826;23.992;2023-11-21T03:27:14;9.05;;;3.58;;
40649;SDS011;26342;42.826;23.992;2023-11-21T03:29:39;11.57;;;3.95;;
40649;SDS011;26342;42.826;23.992;2023-11-21T03:32:04;6.20;;;3.35;;
40649;SDS011;26342;42.826;23.992;2023-11-21T03:34:32;6.60;;;3.75;;
40649;SDS011;26342;42.826;23.992;2023-11-21T03:36:57;6.25;;;4.07;;
40649;SDS011;26342;42.826;23.992;2023-11-21T03:39:23;10.35;;;4.00;;
40649;SDS011;26342;42.826;23.992;2023-11-21T03:41:50;6.63;;;3.45;;
40649;SDS011;26342;42.826;23.992;2023-11-21T03:44:16;4.63;;;3.60;;
40649;SDS011;26342;42.826;23.992;2023-11-21T03:46:42;5.50;;;3.45;;
40649;SDS011;26342;42.826;23.992;2023-11-21T03:49:09;17.10;;;5.82;;
40649;SDS011;26342;42.826;23.992;2023-11-21T03:51:35;6.85;;;3.90;;
40649;SDS011;26342;42.826;23.992;2023-11-21T03:54:01;9.88;;;5.00;;
40649;SDS011;26342;42.826;23.992;2023-11-21T03:56:27;5.57;;;4.05;;
40649;SDS011;26342;42.826;23.992;2023-11-21T03:58:53;11.73;;;5.30;;
40649;SDS011;26342;42.826;23.992;2023-11-21T04:01:19;13.68;;;5.35;;
40649;SDS011;26342;42.826;23.992;2023-11-21T04:03:48;9.50;;;4.93;;
40649;SDS011;26342;42.826;23.992;2023-11-21T04:06:14;4.43;;;3.33;;
40649;SDS011;26342;42.826;23.992;2023-11-21T04:08:42;7.70;;;4.70;;
40649;SDS011;26342;42.826;23.992;2023-11-21T04:11:08;8.98;;;4.90;;
40649;SDS011;26342;42.826;23.992;2023-11-21T04:13:33;8.25;;;4.93;;
40649;SDS011;26342;42.826;23.992;2023-11-21T04:15:59;5.40;;;3.55;;
40649;SDS011;26342;42.826;23.992;2023-11-21T04:18:24;14.23;;;5.88;;
40649;SDS011;26342;42.826;23.992;2023-11-21T04:20:50;15.80;;;8.15;;
40649;SDS011;26342;42.826;23.992;2023-11-21T04:23:16;18.98;;;7.95;;
40649;SDS011;26342;42.826;23.992;2023-11-21T04:25:41;17.85;;;10.23;;
40649;SDS011;26342;42.826;23.992;2023-11-21T04:28:07;12.57;;;6.80;;
40649;SDS011;26342;42.826;23.992;2023-11-21T04:30:33;15.65;;;7.80;;
40649;SDS011;26342;42.826;23.992;2023-11-21T04:32:58;21.77;;;10.45;;
40649;SDS011;26342;42.826;23.992;2023-11-21T04:35:24;25.90;;;8.70;;
40649;SDS011;26342;42.826;23.992;2023-11-21T04:37:49;15.23;;;6.82;;
40649;SDS011;26342;42.826;23.992;2023-11-21T04:40:16;11.35;;;6.13;;
40649;SDS011;26342;42.826;23.992;2023-11-21T04:42:41;15.98;;;5.97;;
40649;SDS011;26342;42.826;23.992;2023-11-21T04:45:07;8.63;;;7.00;;
40649;SDS011;26342;42.826;23.992;2023-11-21T04:47:34;31.52;;;8.05;;
40649;SDS011;26342;42.826;23.992;2023-11-21T04:50:00;10.38;;;6.03;;
40649;SDS011;26342;42.826;23.992;2023-11-21T04:52:25;18.00;;;8.07;;
40649;SDS011;26342;42.826;23.992;2023-11-21T04:54:51;16.90;;;7.78;;
40649;SDS011;26342;42.826;23.992;2023-11-21T04:57:16;26.13;;;10.93;;
40649;SDS011;26342;42.826;23.992;2023-11-21T04:59:43;19.60;;;7.97;;
40649;SDS011;26342;42.826;23.992;2023-11-21T05:02:09;16.52;;;7.90;;
40649;SDS011;26342;42.826;23.992;2023-11-21T05:04:34;10.50;;;4.55;;
40649;SDS011;26342;42.826;23.992;2023-11-21T05:07:00;10.98;;;5.28;;
40649;SDS011;26342;42.826;23.992;2023-11-21T05:09:26;15.95;;;5.53;;
40649;SDS011;26342;42.826;23.992;2023-11-21T05:11:53;14.27;;;6.68;;
40649;SDS011;26342;42.826;23.992;2023-11-21T05:14:19;15.50;;;4.97;;
40649;SDS011;26342;42.826;23.992;2023-11-21T05:16:45;5.15;;;2.40;;
40649;SDS011;26342;42.826;23.992;2023-11-21T05:19:11;6.80;;;3.47;;
40649;SDS011;26342;42.826;23.992;2023-11-21T05:21:38;16.45;;;4.72;;
40649;SDS011;26342;42.826;23.992;2023-11-21T05:24:03;5.65;;;4.13;;
40649;SDS011;26342;42.826;23.992;2023-11-21T05:26:30;9.02;;;3.25;;
40649;SDS011;26342;42.826;23.992;2023-11-21T05:28:55;7.63;;;3.17;;
40649;SDS011;26342;42.826;23.992;2023-11-21T05:31:21;8.63;;;4.53;;
40649;SDS011;26342;42.826;23.992;2023-11-21T05:33:47;19.98;;;5.65;;
40649;SDS011;26342;42.826;23.992;2023-11-21T05:36:12;13.07;;;6.43;;
40649;SDS011;26342;42.826;23.992;2023-11-21T05:38:38;12.88;;;6.97;;
40649;SDS011;26342;42.826;23.992;2023-11-21T05:41:03;15.90;;;7.57;;
40649;SDS011;26342;42.826;23.992;2023-11-21T05:43:29;13.48;;;7.72;;
40649;SDS011;26342;42.826;23.992;2023-11-21T05:45:56;16.33;;;7.22;;
40649;SDS011;26342;42.826;23.992;2023-11-21T05:48:22;12.70;;;5.50;;
40649;SDS011;26342;42.826;23.992;2023-11-21T05:50:47;13.07;;;6.28;;
40649;SDS011;26342;42.826;23.992;2023-11-21T05:53:14;14.88;;;6.15;;
40649;SDS011;26342;42.826;23.992;2023-11-21T05:55:40;11.75;;;7.57;;
40649;SDS011;26342;42.826;23.992;2023-11-21T05:58:07;8.63;;;5.13;;
40649;SDS011;26342;42.826;23.992;2023-11-21T06:00:33;9.63;;;4.85;;
40649;SDS011;26342;42.826;23.992;2023-11-21T06:02:59;15.70;;;5.28;;
40649;SDS011;26342;42.826;23.992;2023-11-21T06:05:25;16.52;;;8.13;;
40649;SDS011;26342;42.826;23.992;2023-11-21T06:07:51;27.75;;;9.45;;
40649;SDS011;26342;42.826;23.992;2023-11-21T06:10:19;21.30;;;9.00;;
40649;SDS011;26342;42.826;23.992;2023-11-21T06:12:48;18.58;;;11.32;;
40649;SDS011;26342;42.826;23.992;2023-11-21T06:15:14;17.30;;;10.02;;
40649;SDS011;26342;42.826;23.992;2023-11-21T06:17:40;19.45;;;10.35;;
40649;SDS011;26342;42.826;23.992;2023-11-21T06:20:07;23.73;;;11.70;;
40649;SDS011;26342;42.826;23.992;2023-11-21T06:22:39;19.67;;;10.60;;
40649;SDS011;26342;42.826;23.992;2023-11-21T06:25:06;33.28;;;13.38;;
40649;SDS011;26342;42.826;23.992;2023-11-21T06:27:37;25.00;;;10.20;;
40649;SDS011;26342;42.826;23.992;2023-11-21T06:30:04;17.63;;;9.68;;
40649;SDS011;26342;42.826;23.992;2023-11-21T06:32:31;24.75;;;12.80;;
40649;SDS011;26342;42.826;23.992;2023-11-21T06:34:56;18.83;;;9.10;;
40649;SDS011;26342;42.826;23.992;2023-11-21T06:37:25;17.73;;;10.00;;
40649;SDS011;26342;42.826;23.992;2023-11-21T06:39:51;21.08;;;10.15;;
40649;SDS011;26342;42.826;23.992;2023-11-21T06:42:18;22.42;;;10.27;;
40649;SDS011;26342;42.826;23.992;2023-11-21T06:44:47;22.70;;;10.88;;
40649;SDS011;26342;42.826;23.992;2023-11-21T06:47:13;19.25;;;12.68;;
40649;SDS011;26342;42.826;23.992;2023-11-21T06:49:38;32.42;;;17.92;;
40649;SDS011;26342;42.826;23.992;2023-11-21T06:52:04;36.35;;;20.58;;
40649;SDS011;26342;42.826;23.992;2023-11-21T06:54:33;26.30;;;15.98;;
40649;SDS011;26342;42.826;23.992;2023-11-21T06:56:59;32.78;;;15.63;;
40649;SDS011;26342;42.826;23.992;2023-11-21T06:59:25;32.30;;;17.48;;
40649;SDS011;26342;42.826;23.992;2023-11-21T07:01:50;36.70;;;16.73;;
40649;SDS011;26342;42.826;23.992;2023-11-21T07:04:16;28.67;;;16.83;;
40649;SDS011;26342;42.826;23.992;2023-11-21T07:06:41;31.40;;;20.13;;
40649;SDS011;26342;42.826;23.992;2023-11-21T07:09:08;37.53;;;18.75;;
40649;SDS011;26342;42.826;23.992;2023-11-21T07:11:34;41.13;;;18.42;;
40649;SDS011;26342;42.826;23.992;2023-11-21T07:14:00;34.55;;;17.17;;
40649;SDS011;26342;42.826;23.992;2023-11-21T07:16:31;38.38;;;20.90;;
40649;SDS011;26342;42.826;23.992;2023-11-21T07:18:59;43.28;;;21.05;;
40649;SDS011;26342;42.826;23.992;2023-11-21T07:21:25;34.28;;;19.00;;
40649;SDS011;26342;42.826;23.992;2023-11-21T07:23:50;34.08;;;16.13;;
40649;SDS011;26342;42.826;23.992;2023-11-21T07:26:15;30.50;;;15.60;;
40649;SDS011;26342;42.826;23.992;2023-11-21T07:28:41;36.25;;;18.80;;
40649;SDS011;26342;42.826;23.992;2023-11-21T07:31:06;33.92;;;17.80;;
40649;SDS011;26342;42.826;23.992;2023-11-21T07:33:32;43.75;;;19.73;;
40649;SDS011;26342;42.826;23.992;2023-11-21T07:35:57;43.75;;;20.55;;
40649;SDS011;26342;42.826;23.992;2023-11-21T07:38:22;33.35;;;17.10;;
40649;SDS011;26342;42.826;23.992;2023-11-21T07:40:48;45.35;;;20.05;;
40649;SDS011;26342;42.826;23.992;2023-11-21T07:43:13;53.97;;;24.60;;
40649;SDS011;26342;42.826;23.992;2023-11-21T07:45:39;46.97;;;24.35;;
40649;SDS011;26342;42.826;23.992;2023-11-21T07:48:04;44.75;;;22.17;;
40649;SDS011;26342;42.826;23.992;2023-11-21T07:50:30;36.60;;;19.15;;
40649;SDS011;26342;42.826;23.992;2023-11-21T07:52:55;25.58;;;14.55;;
40649;SDS011;26342;42.826;23.992;2023-11-21T07:55:21;21.10;;;9.63;;
40649;SDS011;26342;42.826;23.992;2023-11-21T07:57:46;17.50;;;8.55;;
40649;SDS011;26342;42.826;23.992;2023-11-21T08:00:12;17.80;;;9.40;;
40649;SDS011;26342;42.826;23.992;2023-11-21T08:02:40;23.88;;;8.73;;
40649;SDS011;26342;42.826;23.992;2023-11-21T08:05:11;18.48;;;8.48;;
40649;SDS011;26342;42.826;23.992;2023-11-21T08:07:37;18.30;;;6.95;;
40649;SDS011;26342;42.826;23.992;2023-11-21T08:10:02;19.52;;;9.45;;
40649;SDS011;26342;42.826;23.992;2023-11-21T08:12:29;20.75;;;9.55;;
40649;SDS011;26342;42.826;23.992;2023-11-21T08:14:55;11.65;;;6.63;;
40649;SDS011;26342;42.826;23.992;2023-11-21T08:17:20;10.32;;;6.88;;
40649;SDS011;26342;42.826;23.992;2023-11-21T08:19:46;6.07;;;4.88;;
40649;SDS011;26342;42.826;23.992;2023-11-21T08:22:14;15.90;;;8.02;;
40649;SDS011;26342;42.826;23.992;2023-11-21T08:24:41;11.10;;;6.05;;
40649;SDS011;26342;42.826;23.992;2023-11-21T08:27:06;13.93;;;7.65;;
40649;SDS011;26342;42.826;23.992;2023-11-21T08:29:32;9.63;;;3.58;;
40649;SDS011;26342;42.826;23.992;2023-11-21T08:31:57;10.05;;;5.55;;
40649;SDS011;26342;42.826;23.992;2023-11-21T08:34:22;4.25;;;3.85;;
40649;SDS011;26342;42.826;23.992;2023-11-21T08:36:48;10.88;;;4.70;;
40649;SDS011;26342;42.826;23.992;2023-11-21T08:39:16;9.15;;;5.03;;
40649;SDS011;26342;42.826;23.992;2023-11-21T08:41:44;6.50;;;3.38;;
40649;SDS011;26342;42.826;23.992;2023-11-21T08:44:09;4.75;;;2.45;;
40649;SDS011;26342;42.826;23.992;2023-11-21T08:46:34;5.13;;;3.60;;
40649;SDS011;26342;42.826;23.992;2023-11-21T08:49:01;6.75;;;3.05;;
40649;SDS011;26342;42.826;23.992;2023-11-21T08:51:27;3.35;;;2.38;;
40649;SDS011;26342;42.826;23.992;2023-11-21T08:53:52;2.80;;;1.73;;
40649;SDS011;26342;42.826;23.992;2023-11-21T08:56:18;4.72;;;3.45;;
40649;SDS011;26342;42.826;23.992;2023-11-21T08:58:45;7.47;;;4.38;;
40649;SDS011;26342;42.826;23.992;2023-11-21T09:01:12;6.63;;;3.47;;
40649;SDS011;26342;42.826;23.992;2023-11-21T09:03:37;4.55;;;3.90;;
40649;SDS011;26342;42.826;23.992;2023-11-21T09:06:03;9.45;;;6.13;;
40649;SDS011;26342;42.826;23.992;2023-11-21T09:08:29;3.58;;;1.98;;
40649;SDS011;26342;42.826;23.992;2023-11-21T09:10:55;0.20;;;0.20;;
40649;SDS011;26342;42.826;23.992;2023-11-21T09:13:20;0.68;;;0.57;;
40649;SDS011;26342;42.826;23.992;2023-11-21T09:15:45;1.75;;;0.60;;
40649;SDS011;26342;42.826;23.992;2023-11-21T09:18:14;0.40;;;0.28;;
40649;SDS011;26342;42.826;23.992;2023-11-21T09:20:40;1.35;;;0.47;;
40649;SDS011;26342;42.826;23.992;2023-11-21T09:23:05;0.00;;;0.00;;
40649;SDS011;26342;42.826;23.992;2023-11-21T09:25:32;2.30;;;0.55;;
40649;SDS011;26342;42.826;23.992;2023-11-21T09:27:57;2.42;;;0.40;;
40649;SDS011;26342;42.826;23.992;2023-11-21T09:30:23;0.35;;;0.30;;
40649;SDS011;26342;42.826;23.992;2023-11-21T09:32:50;0.28;;;0.28;;
40649;SDS011;26342;42.826;23.992;2023-11-21T09:35:16;0.10;;;0.10;;
40649;SDS011;26342;42.826;23.992;2023-11-21T09:37:43;0.22;;;0.22;;
40649;SDS011;26342;42.826;23.992;2023-11-21T09:40:11;1.08;;;0.75;;
40649;SDS011;26342;42.826;23.992;2023-11-21T09:42:39;7.25;;;1.50;;
40649;SDS011;26342;42.826;23.992;2023-11-21T09:45:21;9.30;;;2.50;;
40649;SDS011;26342;42.826;23.992;2023-11-21T09:47:53;0.77;;;0.47;;
40649;SDS011;26342;42.826;23.992;2023-11-21T09:50:20;0.80;;;0.45;;
40649;SDS011;26342;42.826;23.992;2023-11-21T09:55:35;0.43;;;0.43;;
40649;SDS011;26342;42.826;23.992;2023-11-21T09:58:04;25.83;;;1.00;;
40649;SDS011;26342;42.826;23.992;2023-11-21T10:00:33;3.50;;;0.57;;
40649;SDS011;26342;42.826;23.992;2023-11-21T10:02:59;0.68;;;0.40;;
40649;SDS011;26342;42.826;23.992;2023-11-21T10:05:24;5.13;;;1.60;;
40649;SDS011;26342;42.826;23.992;2023-11-21T10:07:50;1.92;;;0.93;;
40649;SDS011;26342;42.826;23.992;2023-11-21T10:10:18;0.35;;;0.35;;
40649;SDS011;26342;42.826;23.992;2023-11-21T10:12:48;11.80;;;0.50;;
40649;SDS011;26342;42.826;23.992;2023-11-21T10:15:18;0.10;;;0.10;;
40649;SDS011;26342;42.826;23.992;2023-11-21T10:17:50;3.00;;;0.70;;
40649;SDS011;26342;42.826;23.992;2023-11-21T10:20:19;0.30;;;0.20;;
40649;SDS011;26342;42.826;23.992;2023-11-21T10:22:44;0.10;;;0.10;;
40649;SDS011;26342;42.826;23.992;2023-11-21T10:25:11;1.95;;;0.50;;
40649;SDS011;26342;42.826;23.992;2023-11-21T10:27:41;0.10;;;0.10;;
40649;SDS011;26342;42.826;23.992;2023-11-21T10:30:08;0.70;;;0.55;;
40649;SDS011;26342;42.826;23.992;2023-11-21T10:32:37;1.45;;;0.68;;
40649;SDS011;26342;42.826;23.992;2023-11-21T10:35:03;0.28;;;0.28;;
40649;SDS011;26342;42.826;23.992;2023-11-21T10:37:38;0.00;;;0.00;;
40649;SDS011;26342;42.826;23.992;2023-11-21T10:40:10;0.10;;;0.10;;
40649;SDS011;26342;42.826;23.992;2023-11-21T10:42:39;0.10;;;0.10;;
40649;SDS011;26342;42.826;23.992;2023-11-21T10:45:06;0.57;;;0.57;;
40649;SDS011;26342;42.826;23.992;2023-11-21T10:47:40;0.35;;;0.22;;
40649;SDS011;26342;42.826;23.992;2023-11-21T10:50:06;0.10;;;0.10;;
40649;SDS011;26342;42.826;23.992;2023-11-21T10:52:36;1.48;;;0.68;;
40649;SDS011;26342;42.826;23.992;2023-11-21T10:55:15;0.25;;;0.13;;
40649;SDS011;26342;42.826;23.992;2023-11-21T10:57:41;0.10;;;0.10;;
40649;SDS011;26342;42.826;23.992;2023-11-21T11:00:07;0.20;;;0.20;;
40649;SDS011;26342;42.826;23.992;2023-11-21T11:02:37;0.28;;;0.28;;
40649;SDS011;26342;42.826;23.992;2023-11-21T11:05:04;0.20;;;0.20;;
40649;SDS011;26342;42.826;23.992;2023-11-21T11:07:31;0.35;;;0.35;;
40649;SDS011;26342;42.826;23.992;2023-11-21T11:09:59;0.25;;;0.25;;
40649;SDS011;26342;42.826;23.992;2023-11-21T11:12:25;0.98;;;0.40;;
40649;SDS011;26342;42.826;23.992;2023-11-21T11:14:51;0.45;;;0.32;;
40649;SDS011;26342;42.826;23.992;2023-11-21T11:17:17;0.52;;;0.52;;
40649;SDS011;26342;42.826;23.992;2023-11-21T11:19:45;0.08;;;0.08;;
40649;SDS011;26342;42.826;23.992;2023-11-21T11:22:34;0.50;;;0.50;;
40649;SDS011;26342;42.826;23.992;2023-11-21T11:38:39;0.32;;;0.32;;
40649;SDS011;26342;42.826;23.992;2023-11-21T11:41:11;0.00;;;0.00;;
40649;SDS011;26342;42.826;23.992;2023-11-21T11:43:37;0.43;;;0.43;;
40649;SDS011;26342;42.826;23.992;2023-11-21T11:46:09;2.70;;;0.63;;
40649;SDS011;26342;42.826;23.992;2023-11-21T11:48:38;0.00;;;0.00;;
40649;SDS011;26342;42.826;23.992;2023-11-21T11:51:11;1.52;;;1.02;;
40649;SDS011;26342;42.826;23.992;2023-11-21T11:53:42;0.63;;;0.32;;
40649;SDS011;26342;42.826;23.992;2023-11-21T11:58:54;0.65;;;0.65;;
40649;SDS011;26342;42.826;23.992;2023-11-21T12:01:21;0.05;;;0.05;;
40649;SDS011;26342;42.826;23.992;2023-11-21T12:04:22;0.52;;;0.52;;
40649;SDS011;26342;42.826;23.992;2023-11-21T12:06:56;0.10;;;0.10;;
40649;SDS011;26342;42.826;23.992;2023-11-21T12:09:25;0.43;;;0.43;;
40649;SDS011;26342;42.826;23.992;2023-11-21T12:11:52;0.20;;;0.20;;
40649;SDS011;26342;42.826;23.992;2023-11-21T12:14:19;0.80;;;0.38;;
40649;SDS011;26342;42.826;23.992;2023-11-21T12:16:45;0.75;;;0.63;;
40649;SDS011;26342;42.826;23.992;2023-11-21T12:19:13;0.22;;;0.22;;
40649;SDS011;26342;42.826;23.992;2023-11-21T12:21:40;0.20;;;0.20;;
40649;SDS011;26342;42.826;23.992;2023-11-21T12:24:09;0.93;;;0.50;;
40649;SDS011;26342;42.826;23.992;2023-11-21T12:26:35;0.38;;;0.38;;
40649;SDS011;26342;42.826;23.992;2023-11-21T12:29:03;1.30;;;0.28;;
40649;SDS011;26342;42.826;23.992;2023-11-21T12:31:29;0.20;;;0.20;;
40649;SDS011;26342;42.826;23.992;2023-11-21T12:33:55;0.20;;;0.20;;
40649;SDS011;26342;42.826;23.992;2023-11-21T12:36:22;1.38;;;0.82;;
40649;SDS011;26342;42.826;23.992;2023-11-21T12:38:48;0.65;;;0.65;;
40649;SDS011;26342;42.826;23.992;2023-11-21T12:41:13;3.58;;;0.22;;
40649;SDS011;26342;42.826;23.992;2023-11-21T12:43:42;1.75;;;0.77;;
40649;SDS011;26342;42.826;23.992;2023-11-21T12:46:08;1.13;;;0.30;;
40649;SDS011;26342;42.826;23.992;2023-11-21T12:48:38;1.17;;;0.73;;
40649;SDS011;26342;42.826;23.992;2023-11-21T12:51:07;2.35;;;2.15;;
40649;SDS011;26342;42.826;23.992;2023-11-21T12:53:34;1.10;;;1.00;;
40649;SDS011;26342;42.826;23.992;2023-11-21T12:56:06;0.82;;;0.50;;
40649;SDS011;26342;42.826;23.992;2023-11-21T12:58:34;0.70;;;0.65;;
40649;SDS011;26342;42.826;23.992;2023-11-21T13:01:00;1.58;;;1.13;;
40649;SDS011;26342;42.826;23.992;2023-11-21T13:03:29;0.77;;;0.73;;
40649;SDS011;26342;42.826;23.992;2023-11-21T13:05:55;0.43;;;0.22;;
40649;SDS011;26342;42.826;23.992;2023-11-21T13:08:22;1.67;;;1.58;;
40649;SDS011;26342;42.826;23.992;2023-11-21T13:10:50;0.10;;;0.10;;
40649;SDS011;26342;42.826;23.992;2023-11-21T13:13:21;1.88;;;1.15;;
40649;SDS011;26342;42.826;23.992;2023-11-21T13:15:47;2.78;;;1.35;;
40649;SDS011;26342;42.826;23.992;2023-11-21T13:18:14;2.55;;;2.35;;
40649;SDS011;26342;42.826;23.992;2023-11-21T13:20:40;1.08;;;0.90;;
40649;SDS011;26342;42.826;23.992;2023-11-21T13:23:08;7.97;;;1.10;;
40649;SDS011;26342;42.826;23.992;2023-11-21T13:25:36;1.38;;;1.27;;
40649;SDS011;26342;42.826;23.992;2023-11-21T13:28:06;2.85;;;1.67;;
40649;SDS011;26342;42.826;23.992;2023-11-21T13:30:32;4.38;;;2.05;;
40649;SDS011;26342;42.826;23.992;2023-11-21T13:33:01;1.10;;;1.00;;
40649;SDS011;26342;42.826;23.992;2023-11-21T13:35:35;1.20;;;0.98;;
40649;SDS011;26342;42.826;23.992;2023-11-21T13:38:12;3.92;;;2.42;;
40649;SDS011;26342;42.826;23.992;2023-11-21T13:40:40;3.72;;;2.42;;
40649;SDS011;26342;42.826;23.992;2023-11-21T13:43:12;2.28;;;2.08;;
40649;SDS011;26342;42.826;23.992;2023-11-21T13:45:39;2.80;;;2.55;;
40649;SDS011;26342;42.826;23.992;2023-11-21T13:48:05;13.23;;;5.78;;
40649;SDS011;26342;42.826;23.992;2023-11-21T13:50:38;8.80;;;6.00;;
40649;SDS011;26342;42.826;23.992;2023-11-21T13:53:04;3.85;;;3.50;;
40649;SDS011;26342;42.826;23.992;2023-11-21T13:55:41;4.32;;;2.42;;
40649;SDS011;26342;42.826;23.992;2023-11-21T13:58:07;5.55;;;4.55;;
40649;SDS011;26342;42.826;23.992;2023-11-21T14:00:36;5.90;;;2.72;;
40649;SDS011;26342;42.826;23.992;2023-11-21T14:03:09;4.28;;;3.38;;
40649;SDS011;26342;42.826;23.992;2023-11-21T14:05:43;10.40;;;2.45;;
40649;SDS011;26342;42.826;23.992;2023-11-21T14:08:09;8.27;;;5.47;;
40649;SDS011;26342;42.826;23.992;2023-11-21T14:10:37;4.28;;;3.63;;
40649;SDS011;26342;42.826;23.992;2023-11-21T14:13:07;5.65;;;3.90;;
40649;SDS011;26342;42.826;23.992;2023-11-21T14:15:35;7.43;;;6.32;;
40649;SDS011;26342;42.826;23.992;2023-11-21T14:18:06;18.80;;;8.00;;
40649;SDS011;26342;42.826;23.992;2023-11-21T14:20:35;13.63;;;7.57;;
40649;SDS011;26342;42.826;23.992;2023-11-21T14:23:05;7.47;;;5.88;;
40649;SDS011;26342;42.826;23.992;2023-11-21T14:25:34;7.18;;;5.30;;
40649;SDS011;26342;42.826;23.992;2023-11-21T14:28:02;9.77;;;5.43;;
40649;SDS011;26342;42.826;23.992;2023-11-21T14:30:29;9.02;;;6.60;;
40649;SDS011;26342;42.826;23.992;2023-11-21T14:32:57;11.52;;;7.78;;
40649;SDS011;26342;42.826;23.992;2023-11-21T14:35:26;9.13;;;3.85;;
40649;SDS011;26342;42.826;23.992;2023-11-21T14:37:52;9.52;;;3.28;;
40649;SDS011;26342;42.826;23.992;2023-11-21T14:40:17;8.50;;;4.40;;
40649;SDS011;26342;42.826;23.992;2023-11-21T14:42:47;8.80;;;3.17;;
40649;SDS011;26342;42.826;23.992;2023-11-21T14:45:13;9.73;;;4.35;;